Item Display Status Serial CT Sensor

Mooring Depth: 1 m

 

Deployed Sensor

  • Serial Number: 12432
  • NDBC Property Number: 38898
  • Start Date: 3/30/2020 (08:58:14 Z)
  • End Date: Currently Active
Water Temperature [°C]     6 entries per hour
Showing data from 9/19/2020 (22:00:00 Z) to 9/18/2020 (00:00:01 Z)
Previous Next [ Day | 3-Days | 7-Days ]
First Last
Prev [ Day | 3-Days | 7-Days ] Next
First Last

Start Time:     :
End Time:     :     
Time (in GMT) :00 :50 :40 :30 :20 :10
Previous Next [ Day | 3-Days | 7-Days ]
First Last
Prev [ Day | 3-Days | 7-Days ] Next
First Last


123 => good data
MM => data is determined as missing
-- => data not received/configured
Back to Top Back to Top
9/19/2020 22:00 to 21:10 25.513 25.509 25.509 25.509 25.516 25.503
9/19/2020 21:00 to 20:10 25.485 25.481 25.480 25.473 25.467 25.469
9/19/2020 20:00 to 19:10 25.477 25.483 25.481 25.479 25.479 25.481
9/19/2020 19:00 to 18:10 25.488 25.495 25.492 25.488 25.491 25.487
9/19/2020 18:00 to 17:10 25.488 25.488 25.500 25.494 25.487 25.496
9/19/2020 17:00 to 16:10 25.475 25.471 25.480 25.490 25.494 25.488
9/19/2020 16:00 to 15:10 25.489 25.468 25.472 25.496 25.510 25.495
9/19/2020 15:00 to 14:10 25.521 25.498 25.516 25.520 25.513 25.493
9/19/2020 14:00 to 13:10 25.499 25.499 25.497 25.491 25.498 25.503
9/19/2020 13:00 to 12:10 25.504 25.508 -- -- 25.515 25.506
9/19/2020 12:00 to 11:10 25.514 25.521 25.523 25.521 25.520 25.523
9/19/2020 11:00 to 10:10 25.513 25.532 25.525 25.532 25.530 25.526
9/19/2020 10:00 to 9:10 25.534 25.533 25.532 25.540 25.541 25.540
9/19/2020 09:00 to 8:10 25.520 25.541 25.526 25.510 25.524 25.529
9/19/2020 08:00 to 7:10 25.523 25.523 25.517 25.538 25.541 25.547
9/19/2020 07:00 to 6:10 25.546 25.552 25.540 25.554 25.546 25.545
9/19/2020 06:00 to 5:10 25.550 25.560 25.564 25.565 25.563 25.568
9/19/2020 05:00 to 4:10 25.572 25.574 25.566 25.576 25.573 25.579
9/19/2020 04:00 to 3:10 25.575 25.575 25.576 25.582 25.576 25.579
9/19/2020 03:00 to 2:10 25.575 25.566 -- -- 25.576 25.588
9/19/2020 02:00 to 1:10 25.575 25.583 25.581 25.582 25.580 25.590
9/19/2020 01:00 to 0:10 25.581 25.581 25.579 25.582 25.573 25.578
9/19/2020 00:00 to 23:10 25.584 25.584 25.586 25.575 25.582 25.589
9/18/2020 23:00 to 22:10 25.589 25.591 25.590 25.596 25.591 25.589
9/18/2020 22:00 to 21:10 25.584 25.598 25.595 25.583 25.597 25.588
9/18/2020 21:00 to 20:10 25.593 25.592 25.592 25.591 25.593 25.592
9/18/2020 20:00 to 19:10 25.589 25.592 25.589 25.585 25.580 25.583
9/18/2020 19:00 to 18:10 25.584 25.584 25.577 25.577 25.575 25.567
9/18/2020 18:00 to 17:10 25.565 25.563 25.562 25.559 25.555 25.552
9/18/2020 17:00 to 16:10 25.546 25.547 25.541 25.536 25.526 25.531
9/18/2020 16:00 to 15:10 25.513 25.522 25.529 25.514 25.526 25.518
9/18/2020 15:00 to 14:10 25.512 25.526 25.519 25.528 25.525 25.530
9/18/2020 14:00 to 13:10 25.510 25.538 25.530 25.535 25.527 25.524
9/18/2020 13:00 to 12:10 25.535 25.531 25.535 25.528 25.531 25.526
9/18/2020 12:00 to 11:10 25.521 25.501 25.518 25.525 25.511 25.526
9/18/2020 11:00 to 10:10 25.522 25.519 25.528 25.523 25.526 25.525
9/18/2020 10:00 to 9:10 25.513 25.525 25.509 25.513 25.513 25.512
9/18/2020 09:00 to 8:10 25.514 25.514 25.528 25.509 25.508 25.514
9/18/2020 08:00 to 7:10 25.519 25.521 25.532 25.525 25.525 25.508
9/18/2020 07:00 to 6:10 25.522 25.513 25.506 25.527 25.523 25.525
9/18/2020 06:00 to 5:10 25.524 25.520 25.523 25.534 25.523 25.518
9/18/2020 05:00 to 4:10 25.529 25.533 25.534 25.532 25.522 25.528
9/18/2020 04:00 to 3:10 25.537 25.532 25.539 25.544 25.556 25.541
9/18/2020 03:00 to 2:10 25.544 25.542 25.540 25.520 25.540 25.545
9/18/2020 02:00 to 1:10 25.534 25.546 25.542 25.544 25.549 25.531
9/18/2020 01:00 to 0:10 25.538 25.553 25.553 25.567 25.567 25.570

 

 

 

Conductivity [S/m]     6 entries per hour
Showing data from 9/19/2020 (22:00:00 Z) to 9/18/2020 (00:00:01 Z)
Previous Next [ Day | 3-Days | 7-Days ]
First Last
Prev [ Day | 3-Days | 7-Days ] Next
First Last

Start Time:     :
End Time:     :     
Time (in GMT) :00 :50 :40 :30 :20 :10
Previous Next [ Day | 3-Days | 7-Days ]
First Last
Prev [ Day | 3-Days | 7-Days ] Next
First Last


123 => good data
MM => data is determined as missing
-- => data not received/configured
Back to Top Back to Top
9/19/2020 22:00 to 21:10 5.26185 5.26122 5.26144 5.26131 5.26210 5.26066
9/19/2020 21:00 to 20:10 5.25875 5.25802 5.25783 5.25720 5.25657 5.25657
9/19/2020 20:00 to 19:10 5.25756 5.25846 5.25818 5.25820 5.25830 5.25840
9/19/2020 19:00 to 18:10 5.25905 5.25996 5.25999 5.25934 5.25981 5.25952
9/19/2020 18:00 to 17:10 5.25936 5.25990 5.26082 5.26021 5.25943 5.26019
9/19/2020 17:00 to 16:10 5.25859 5.25763 5.25858 5.25969 5.26035 5.25972
9/19/2020 16:00 to 15:10 5.25962 5.25932 5.25869 5.26079 5.26084 5.25974
9/19/2020 15:00 to 14:10 5.26156 5.26021 5.26050 5.26064 5.25892 5.25770
9/19/2020 14:00 to 13:10 5.25815 5.25657 5.25624 5.25631 5.25625 5.25682
9/19/2020 13:00 to 12:10 5.25678 5.25643 5.25602 5.25660 5.25642 5.25591
9/19/2020 12:00 to 11:10 5.25634 5.25716 5.25789 5.25711 5.25747 5.25686
9/19/2020 11:00 to 10:10 5.25702 5.25777 5.25698 5.25743 5.25754 5.25735
9/19/2020 10:00 to 9:10 5.25756 5.25732 5.25733 5.25770 5.25821 5.25812
9/19/2020 09:00 to 8:10 5.25653 5.25757 5.25582 5.25540 5.25586 5.25622
9/19/2020 08:00 to 7:10 5.25634 5.25573 5.25548 5.25633 5.25682 5.25760
9/19/2020 07:00 to 6:10 5.25708 5.25768 5.25657 5.25723 5.25686 5.25722
9/19/2020 06:00 to 5:10 5.25743 5.25791 5.25811 5.25834 5.25810 5.25846
9/19/2020 05:00 to 4:10 5.25912 5.25893 5.25852 5.25923 5.25884 5.25934
9/19/2020 04:00 to 3:10 5.25913 5.25866 5.25919 5.25957 5.25936 5.25917
9/19/2020 03:00 to 2:10 5.25863 5.25811 5.25990 5.25993 5.25940 5.25967
9/19/2020 02:00 to 1:10 5.25846 5.25912 5.25907 5.25893 5.25870 5.25941
9/19/2020 01:00 to 0:10 5.25875 5.25894 5.25876 5.25869 5.25850 5.25871
9/19/2020 00:00 to 23:10 5.25879 5.25866 5.25894 5.25806 5.25875 5.25906
9/18/2020 23:00 to 22:10 5.25909 5.25926 5.25902 5.25952 5.25921 5.25900
9/18/2020 22:00 to 21:10 5.25849 5.25963 5.25947 5.25877 5.25952 5.25904
9/18/2020 21:00 to 20:10 5.25906 5.25902 5.25885 5.25884 5.25873 5.25869
9/18/2020 20:00 to 19:10 5.25840 5.25858 5.25824 5.25796 5.25726 5.25780
9/18/2020 19:00 to 18:10 5.25768 5.25738 5.25683 5.25669 5.25639 5.25564
9/18/2020 18:00 to 17:10 5.25523 5.25504 5.25507 5.25466 5.25440 5.25382
9/18/2020 17:00 to 16:10 5.25324 5.25327 5.25306 5.25220 5.25112 5.25152
9/18/2020 16:00 to 15:10 5.25025 5.25052 5.25121 5.25033 5.25109 5.25053
9/18/2020 15:00 to 14:10 5.25011 5.25087 5.25071 5.25094 5.25088 5.25125
9/18/2020 14:00 to 13:10 5.25027 5.25195 5.25155 5.25212 5.25154 5.25166
9/18/2020 13:00 to 12:10 5.25175 5.25134 5.25144 5.25042 5.25069 5.25062
9/18/2020 12:00 to 11:10 5.25057 5.24873 5.25025 5.25040 5.24967 5.25021
9/18/2020 11:00 to 10:10 5.25001 5.24955 5.24959 5.24965 5.25002 5.24948
9/18/2020 10:00 to 9:10 5.24930 5.24896 5.24822 5.24770 5.24769 5.24763
9/18/2020 09:00 to 8:10 5.24806 5.24807 5.24859 5.24620 5.24643 5.24661
9/18/2020 08:00 to 7:10 5.24691 5.24703 5.24803 5.24686 5.24757 5.24628
9/18/2020 07:00 to 6:10 5.24734 5.24682 5.24604 5.24752 5.24701 5.24678
9/18/2020 06:00 to 5:10 5.24638 5.24655 5.24736 5.24766 5.24677 5.24651
9/18/2020 05:00 to 4:10 5.24752 5.24758 5.24715 5.24760 5.24736 5.24759
9/18/2020 04:00 to 3:10 5.24800 5.24770 5.24799 5.24829 5.24918 5.24799
9/18/2020 03:00 to 2:10 5.24802 5.24789 5.24733 5.24621 5.24690 5.24721
9/18/2020 02:00 to 1:10 5.24646 5.24748 5.24762 5.24759 5.24817 5.24712
9/18/2020 01:00 to 0:10 5.24719 5.24808 5.24869 5.24973 5.25000 5.24973

 

 

 

Salinity [psu]     6 entries per hour
Showing data from 9/19/2020 (22:00:00 Z) to 9/18/2020 (00:00:01 Z)
Previous Next [ Day | 3-Days | 7-Days ]
First Last
Prev [ Day | 3-Days | 7-Days ] Next
First Last

Start Time:     :
End Time:     :     
Time (in GMT) :00 :50 :40 :30 :20 :10
Previous Next [ Day | 3-Days | 7-Days ]
First Last
Prev [ Day | 3-Days | 7-Days ] Next
First Last


123 => good data
MM => data is determined as missing
-- => data not received/configured
Back to Top Back to Top
9/19/2020 22:00 to 21:10 34.27 34.27 34.27 34.27 34.27 34.27
9/19/2020 21:00 to 20:10 34.27 34.27 34.27 34.27 34.27 34.27
9/19/2020 20:00 to 19:10 34.27 34.27 34.27 34.27 34.27 34.27
9/19/2020 19:00 to 18:10 34.27 34.27 34.28 34.27 34.28 34.28
9/19/2020 18:00 to 17:10 34.28 34.28 34.28 34.28 34.28 34.27
9/19/2020 17:00 to 16:10 34.28 34.28 34.28 34.28 34.28 34.28
9/19/2020 16:00 to 15:10 34.28 34.29 34.28 34.28 34.27 34.27
9/19/2020 15:00 to 14:10 34.27 34.27 34.26 34.26 34.25 34.26
9/19/2020 14:00 to 13:10 34.26 34.25 34.25 34.25 34.24 34.24
9/19/2020 13:00 to 12:10 34.24 34.24 -- -- 34.23 34.24
9/19/2020 12:00 to 11:10 34.23 34.23 34.24 34.23 34.24 34.23
9/19/2020 11:00 to 10:10 34.24 34.23 34.23 34.23 34.23 34.23
9/19/2020 10:00 to 9:10 34.23 34.23 34.23 34.22 34.23 34.23
9/19/2020 09:00 to 8:10 34.23 34.22 34.22 34.23 34.22 34.22
9/19/2020 08:00 to 7:10 34.23 34.22 34.22 34.22 34.22 34.22
9/19/2020 07:00 to 6:10 34.21 34.21 34.22 34.21 34.21 34.22
9/19/2020 06:00 to 5:10 34.21 34.21 34.21 34.21 34.21 34.21
9/19/2020 05:00 to 4:10 34.21 34.21 34.21 34.21 34.21 34.21
9/19/2020 04:00 to 3:10 34.21 34.20 34.21 34.21 34.21 34.21
9/19/2020 03:00 to 2:10 34.20 34.21 -- -- 34.21 34.20
9/19/2020 02:00 to 1:10 34.20 34.20 34.20 34.20 34.20 34.20
9/19/2020 01:00 to 0:10 34.20 34.20 34.20 34.20 34.20 34.20
9/19/2020 00:00 to 23:10 34.20 34.20 34.20 34.20 34.20 34.20
9/18/2020 23:00 to 22:10 34.20 34.20 34.20 34.20 34.20 34.20
9/18/2020 22:00 to 21:10 34.20 34.19 34.20 34.20 34.19 34.20
9/18/2020 21:00 to 20:10 34.19 34.19 34.19 34.19 34.19 34.19
9/18/2020 20:00 to 19:10 34.19 34.19 34.19 34.19 34.19 34.19
9/18/2020 19:00 to 18:10 34.19 34.19 34.19 34.19 34.19 34.19
9/18/2020 18:00 to 17:10 34.19 34.19 34.19 34.19 34.19 34.19
9/18/2020 17:00 to 16:10 34.19 34.19 34.19 34.19 34.19 34.18
9/18/2020 16:00 to 15:10 34.19 34.18 34.18 34.19 34.19 34.19
9/18/2020 15:00 to 14:10 34.19 34.18 34.19 34.18 34.19 34.18
9/18/2020 14:00 to 13:10 34.19 34.18 34.19 34.19 34.19 34.19
9/18/2020 13:00 to 12:10 34.18 34.18 34.18 34.18 34.18 34.18
9/18/2020 12:00 to 11:10 34.19 34.19 34.19 34.18 34.19 34.18
9/18/2020 11:00 to 10:10 34.18 34.18 34.17 34.18 34.18 34.17
9/18/2020 10:00 to 9:10 34.18 34.17 34.18 34.17 34.17 34.17
9/18/2020 09:00 to 8:10 34.17 34.17 34.17 34.16 34.16 34.16
9/18/2020 08:00 to 7:10 34.16 34.16 34.16 34.16 34.16 34.16
9/18/2020 07:00 to 6:10 34.16 34.16 34.16 34.16 34.16 34.16
9/18/2020 06:00 to 5:10 34.15 34.16 34.16 34.15 34.16 34.16
9/18/2020 05:00 to 4:10 34.16 34.16 34.15 34.16 34.16 34.16
9/18/2020 04:00 to 3:10 34.16 34.16 34.15 34.15 34.15 34.15
9/18/2020 03:00 to 2:10 34.15 34.15 34.15 34.15 34.14 34.14
9/18/2020 02:00 to 1:10 34.15 34.14 34.15 34.15 34.15 34.15
9/18/2020 01:00 to 0:10 34.15 34.14 34.15 34.15 34.15 34.14